Time;durP1;ratioP1;P1;durP2;ratioP2;P2;SDS_P1;SDS_P2;PMS_P1;PMS_P2;Temp;Humidity;BMP_temperature;BMP_pressure;BME280_temperature;BME280_humidity;BME280_pressure;Samples;Min_cycle;Max_cycle;Signal;HPM_P1;HPM_P2
2023/05/06 00:00:32;;;;;;;12.52;10.50;;;12.70;99.90;;;;;;5089659;28;20440;-84
2023/05/06 00:02:59;;;;;;;15.38;10.55;;;12.70;99.90;;;;;;5089324;28;20139;-84
2023/05/06 00:05:25;;;;;;;13.38;10.07;;;12.70;99.90;;;;;;5124208;27;20051;-84
2023/05/06 00:07:52;;;;;;;18.73;11.75;;;12.70;99.90;;;;;;5071976;28;20042;-84
2023/05/06 00:10:17;;;;;;;16.77;11.43;;;12.70;99.90;;;;;;5089491;28;20051;-84
2023/05/06 00:12:43;;;;;;;15.68;10.77;;;12.70;99.90;;;;;;5055519;28;20056;-84
2023/05/06 00:15:09;;;;;;;15.93;11.32;;;12.70;99.90;;;;;;5089412;28;20096;-84
2023/05/06 00:17:35;;;;;;;20.73;12.55;;;12.60;99.90;;;;;;5089281;28;20043;-84
2023/05/06 00:20:02;;;;;;;14.13;10.88;;;12.60;99.90;;;;;;5072298;28;20044;-84
2023/05/06 00:22:28;;;;;;;18.45;13.02;;;12.60;99.90;;;;;;5089455;28;20052;-84
2023/05/06 00:24:54;;;;;;;16.20;11.82;;;12.50;99.90;;;;;;5088479;28;20516;-84
2023/05/06 00:27:19;;;;;;;19.90;13.38;;;12.40;99.90;;;;;;5089865;28;20040;-84
2023/05/06 00:29:45;;;;;;;13.80;11.05;;;12.40;99.90;;;;;;5088513;28;20503;-84
2023/05/06 00:32:11;;;;;;;20.25;14.25;;;12.40;99.90;;;;;;5072248;28;20040;-84
2023/05/06 00:34:36;;;;;;;18.33;13.75;;;12.30;99.90;;;;;;5089359;28;20046;-84
2023/05/06 00:37:02;;;;;;;17.27;13.63;;;12.30;99.90;;;;;;5072198;28;20090;-84
2023/05/06 00:39:28;;;;;;;17.85;14.05;;;12.30;99.90;;;;;;5088988;28;20093;-84
2023/05/06 00:42:01;;;;;;;19.23;14.57;;;12.30;99.90;;;;;;5105653;28;20366;-84
2023/05/06 00:44:27;;;;;;;14.80;12.13;;;12.20;99.90;;;;;;5072481;28;20043;-84
2023/05/06 00:46:54;;;;;;;21.50;13.55;;;12.20;99.90;;;;;;5088158;28;20047;-84
2023/05/06 00:49:20;;;;;;;19.13;13.25;;;12.20;99.90;;;;;;5089058;28;20066;-84
2023/05/06 00:51:46;;;;;;;16.35;12.75;;;12.10;99.90;;;;;;5122359;27;20044;-84
2023/05/06 00:54:12;;;;;;;20.67;13.52;;;12.00;99.90;;;;;;5105583;28;20104;-84
2023/05/06 00:56:39;;;;;;;16.98;13.38;;;12.10;99.90;;;;;;5071464;28;20082;-84
2023/05/06 00:59:05;;;;;;;15.55;12.30;;;12.10;99.90;;;;;;5073141;28;20044;-85
2023/05/06 01:01:32;;;;;;;17.98;10.32;;;12.00;99.90;;;;;;5073000;28;20747;-84
2023/05/06 01:03:58;;;;;;;15.45;11.15;;;12.00;99.90;;;;;;5088809;28;20050;-84
2023/05/06 01:06:26;;;;;;;14.85;11.27;;;12.10;99.90;;;;;;5106478;28;20036;-84
2023/05/06 01:09:13;;;;;;;17.80;10.95;;;12.10;99.90;;;;;;5106323;28;20056;-83
2023/05/06 01:11:53;;;;;;;17.33;12.88;;;12.10;99.90;;;;;;5089011;28;20059;-83
2023/05/06 01:14:32;;;;;;;20.27;12.63;;;12.10;99.90;;;;;;5089577;28;20050;-83
2023/05/06 01:17:03;;;;;;;19.55;12.98;;;12.10;99.90;;;;;;5088274;28;20574;-84
2023/05/06 01:19:29;;;;;;;22.00;13.77;;;12.20;99.90;;;;;;5105993;28;20127;-84
2023/05/06 01:21:58;;;;;;;16.90;11.32;;;12.10;99.90;;;;;;5088671;28;20056;-84
2023/05/06 01:24:43;;;;;;;19.35;11.27;;;12.10;99.90;;;;;;5088311;28;20044;-84
2023/05/06 01:27:10;;;;;;;19.73;12.25;;;12.10;99.90;;;;;;5088394;28;20126;-84
2023/05/06 01:29:40;;;;;;;17.40;11.73;;;12.10;99.90;;;;;;5087519;28;20051;-84
2023/05/06 01:32:18;;;;;;;17.98;11.77;;;12.10;99.90;;;;;;5088451;28;20152;-84
2023/05/06 01:35:08;;;;;;;19.30;12.02;;;12.10;99.90;;;;;;5088213;28;20147;-84
2023/05/06 01:37:45;;;;;;;14.57;10.38;;;12.10;99.90;;;;;;5105088;27;20103;-83
2023/05/06 01:40:13;;;;;;;17.38;11.25;;;12.10;99.90;;;;;;5105073;28;20047;-84
2023/05/06 01:42:40;;;;;;;14.85;9.43;;;12.10;99.90;;;;;;5087204;28;20043;-84
2023/05/06 01:45:07;;;;;;;14.23;9.50;;;12.20;99.90;;;;;;5071711;28;20039;-84
2023/05/06 01:47:33;;;;;;;15.00;9.27;;;12.20;99.90;;;;;;5104511;28;20051;-84
2023/05/06 01:50:00;;;;;;;13.05;9.13;;;12.20;99.90;;;;;;5104773;27;20048;-84
2023/05/06 01:52:26;;;;;;;15.43;8.95;;;12.20;99.90;;;;;;5104219;28;20043;-84
2023/05/06 01:54:52;;;;;;;15.27;9.38;;;12.20;99.90;;;;;;5087619;28;20046;-84
2023/05/06 01:57:17;;;;;;;14.98;8.52;;;12.20;99.90;;;;;;5104859;28;20392;-84
2023/05/06 01:59:43;;;;;;;12.13;7.93;;;12.20;99.90;;;;;;5086927;28;20142;-84
2023/05/06 02:02:09;;;;;;;17.40;7.85;;;12.20;99.90;;;;;;5088364;28;20146;-84
2023/05/06 02:04:34;;;;;;;12.45;7.55;;;12.10;99.90;;;;;;5087478;28;20039;-83
2023/05/06 02:07:00;;;;;;;11.00;7.47;;;12.10;99.90;;;;;;5104616;28;20039;-84
2023/05/06 02:09:26;;;;;;;13.82;8.30;;;12.00;99.90;;;;;;5069987;28;20047;-84
2023/05/06 02:11:51;;;;;;;12.40;8.07;;;12.00;99.90;;;;;;5070580;28;20043;-84
2023/05/06 02:14:17;;;;;;;16.30;7.57;;;11.90;99.90;;;;;;5070815;28;20043;-84
2023/05/06 02:16:43;;;;;;;12.57;7.07;;;11.80;99.90;;;;;;5069908;28;20436;-84
2023/05/06 02:19:09;;;;;;;12.45;8.10;;;11.80;99.90;;;;;;5104593;28;20100;-84
2023/05/06 02:21:34;;;;;;;8.73;6.82;;;11.80;99.90;;;;;;5103735;28;20036;-83
2023/05/06 02:24:00;;;;;;;13.57;7.22;;;11.70;99.90;;;;;;5087447;28;20055;-83
2023/05/06 02:26:26;;;;;;;11.82;7.13;;;11.60;99.90;;;;;;5070345;28;20051;-84
2023/05/06 02:28:51;;;;;;;10.65;6.35;;;11.60;99.90;;;;;;5104356;28;20052;-83
2023/05/06 02:31:17;;;;;;;18.05;6.78;;;11.50;99.90;;;;;;5070688;28;20043;-83
2023/05/06 02:33:44;;;;;;;8.65;6.53;;;11.50;99.90;;;;;;5070109;28;20397;-83
2023/05/06 02:36:10;;;;;;;10.63;6.18;;;11.50;99.90;;;;;;5087737;28;20149;-83
2023/05/06 02:38:35;;;;;;;7.75;6.82;;;11.50;99.90;;;;;;5086704;28;20044;-83
2023/05/06 02:41:01;;;;;;;10.02;6.60;;;11.40;99.90;;;;;;5087695;28;20079;-85
2023/05/06 02:43:27;;;;;;;9.70;6.18;;;11.40;99.90;;;;;;5086910;28;20074;-85
2023/05/06 02:45:52;;;;;;;8.02;5.63;;;11.30;99.90;;;;;;5087503;28;20044;-85
2023/05/06 02:48:18;;;;;;;7.90;6.45;;;11.20;99.90;;;;;;5103777;28;20043;-85
2023/05/06 02:50:44;;;;;;;8.18;5.35;;;11.20;99.90;;;;;;5070312;28;20044;-85
2023/05/06 02:53:12;;;;;;;8.13;5.53;;;11.10;99.90;;;;;;5104200;28;20484;-84
2023/05/06 02:55:37;;;;;;;13.07;6.00;;;11.10;99.90;;;;;;5070016;28;20039;-85
2023/05/06 02:58:03;;;;;;;7.50;6.50;;;11.00;99.90;;;;;;5070793;28;20047;-84
2023/05/06 03:00:29;;;;;;;12.02;7.00;;;11.00;99.90;;;;;;5069566;28;20067;-85
2023/05/06 03:02:55;;;;;;;10.00;6.82;;;11.00;99.90;;;;;;5087100;28;20081;-84
2023/05/06 03:05:21;;;;;;;8.45;5.93;;;11.00;99.90;;;;;;5120772;28;20129;-84
2023/05/06 03:07:46;;;;;;;9.07;6.20;;;10.90;99.90;;;;;;5086838;28;20140;-84
2023/05/06 03:10:12;;;;;;;9.73;6.03;;;10.90;99.90;;;;;;5086799;28;20044;-83
2023/05/06 03:12:38;;;;;;;7.85;6.20;;;11.20;99.90;;;;;;5068972;28;20046;-83
2023/05/06 03:15:06;;;;;;;8.98;5.20;;;10.80;99.90;;;;;;5087229;28;20075;-83
2023/05/06 03:17:32;;;;;;;7.43;5.13;;;10.70;99.90;;;;;;5086128;28;20441;-83
2023/05/06 03:19:57;;;;;;;6.97;5.05;;;10.70;99.90;;;;;;5088246;28;20134;-83
2023/05/06 03:22:23;;;;;;;9.52;6.65;;;10.70;99.90;;;;;;5072559;28;20048;-82
2023/05/06 03:24:49;;;;;;;7.90;6.15;;;10.70;99.90;;;;;;5090352;28;20159;-84
2023/05/06 03:27:15;;;;;;;8.30;5.85;;;10.70;99.90;;;;;;5090012;28;20112;-84
2023/05/06 03:29:40;;;;;;;8.48;5.45;;;10.70;99.90;;;;;;5089566;28;20047;-83
2023/05/06 03:32:06;;;;;;;14.38;5.95;;;10.60;99.90;;;;;;5107390;28;20048;-84
2023/05/06 03:34:32;;;;;;;8.10;6.45;;;10.50;99.90;;;;;;5107104;27;20086;-84
2023/05/06 03:36:59;;;;;;;8.80;5.93;;;10.60;99.90;;;;;;5090630;28;20039;-83
2023/05/06 03:39:24;;;;;;;7.53;5.80;;;10.60;99.90;;;;;;5106208;28;20043;-83
2023/05/06 03:41:50;;;;;;;10.05;5.95;;;10.60;99.90;;;;;;5090901;28;20105;-83
2023/05/06 03:44:16;;;;;;;6.93;5.65;;;10.60;99.90;;;;;;5089940;28;20408;-83
2023/05/06 03:46:41;;;;;;;9.60;6.13;;;10.60;99.90;;;;;;5090171;28;20044;-83
2023/05/06 03:49:07;;;;;;;9.02;6.78;;;10.60;99.90;;;;;;5107147;28;20036;-83
2023/05/06 03:51:34;;;;;;;11.20;7.15;;;10.60;99.90;;;;;;5072350;28;20043;-83
2023/05/06 03:54:00;;;;;;;11.63;8.13;;;10.60;99.90;;;;;;5106853;28;20047;-83
2023/05/06 03:56:26;;;;;;;11.65;8.82;;;10.80;99.90;;;;;;5089200;28;20047;-83
2023/05/06 03:58:54;;;;;;;13.32;9.05;;;10.70;99.90;;;;;;5089983;28;20047;-83
2023/05/06 04:01:20;;;;;;;13.52;9.48;;;10.70;99.90;;;;;;5106340;28;20039;-83
2023/05/06 04:03:46;;;;;;;12.07;9.80;;;10.70;99.90;;;;;;5072977;28;20395;-83
2023/05/06 04:06:12;;;;;;;13.85;9.98;;;10.70;99.90;;;;;;5072981;28;20050;-83
2023/05/06 04:08:38;;;;;;;11.65;9.45;;;10.80;99.90;;;;;;5072498;28;20070;-83
2023/05/06 04:11:04;;;;;;;15.43;9.65;;;10.80;99.90;;;;;;5106621;28;20526;-82
2023/05/06 04:13:31;;;;;;;12.38;8.38;;;10.80;99.90;;;;;;5106046;28;20055;-83
2023/05/06 04:15:57;;;;;;;16.63;10.02;;;10.80;99.90;;;;;;5090053;28;20160;-83
2023/05/06 04:18:23;;;;;;;10.35;8.50;;;10.80;99.90;;;;;;5123304;27;20043;-83
2023/05/06 04:20:49;;;;;;;10.77;7.85;;;10.80;99.90;;;;;;5089399;28;20043;-83
2023/05/06 04:23:15;;;;;;;11.82;9.40;;;10.80;99.90;;;;;;5106282;28;20092;-83
2023/05/06 04:25:41;;;;;;;14.50;8.65;;;10.80;99.90;;;;;;5089037;28;20448;-83
2023/05/06 04:28:11;;;;;;;14.80;10.10;;;10.80;99.90;;;;;;5089877;28;20128;-83
2023/05/06 04:30:36;;;;;;;11.27;8.80;;;10.80;99.90;;;;;;5122453;27;20039;-82
2023/05/06 04:33:02;;;;;;;13.63;9.20;;;10.80;99.90;;;;;;5071727;28;20051;-82
2023/05/06 04:35:28;;;;;;;11.57;9.52;;;10.90;99.90;;;;;;5105424;28;20039;-82
2023/05/06 04:37:55;;;;;;;14.63;9.48;;;10.90;99.90;;;;;;5071936;28;20043;-82
2023/05/06 04:40:22;;;;;;;12.45;9.15;;;10.90;99.90;;;;;;5089240;28;20440;-82
2023/05/06 04:42:48;;;;;;;12.05;8.63;;;10.90;99.90;;;;;;5088557;28;20051;-83
2023/05/06 04:45:13;;;;;;;9.07;8.02;;;10.90;99.90;;;;;;5106327;28;20459;-84
2023/05/06 04:47:39;;;;;;;11.23;8.35;;;10.90;99.90;;;;;;5105420;28;20077;-82
2023/05/06 04:50:05;;;;;;;21.05;8.50;;;11.00;99.90;;;;;;5073028;28;20083;-83
2023/05/06 04:52:31;;;;;;;25.85;7.95;;;11.00;99.90;;;;;;5088639;28;20433;-83
2023/05/06 04:54:57;;;;;;;8.43;6.53;;;11.00;99.90;;;;;;5088719;28;20157;-83
2023/05/06 04:57:22;;;;;;;16.08;6.50;;;11.00;99.90;;;;;;5088759;28;20054;-83
2023/05/06 04:59:48;;;;;;;13.95;7.35;;;11.10;99.90;;;;;;5088455;28;20044;-84
2023/05/06 05:02:14;;;;;;;15.05;7.28;;;11.10;99.90;;;;;;5072590;28;20036;-83
2023/05/06 05:04:40;;;;;;;8.52;6.75;;;11.10;99.90;;;;;;5071538;28;20096;-82
2023/05/06 05:07:06;;;;;;;9.13;7.55;;;10.60;99.90;;;;;;5089143;28;20485;-83
2023/05/06 05:09:33;;;;;;;9.57;6.95;;;11.20;99.90;;;;;;5070702;28;20529;-83
2023/05/06 05:12:03;;;;;;;8.25;6.15;;;11.30;99.90;;;;;;5088711;28;20039;-84
2023/05/06 05:14:29;;;;;;;9.00;7.32;;;11.40;99.90;;;;;;5089296;28;20056;-83
2023/05/06 05:16:54;;;;;;;7.38;6.22;;;11.40;99.90;;;;;;5072475;28;20047;-83
2023/05/06 05:19:20;;;;;;;8.65;6.55;;;11.40;99.90;;;;;;5090132;28;20043;-84
2023/05/06 05:21:46;;;;;;;9.82;6.75;;;11.50;99.90;;;;;;5088983;28;20215;-84
2023/05/06 05:24:12;;;;;;;8.95;7.53;;;11.60;99.90;;;;;;5089625;28;20500;-84
2023/05/06 05:26:38;;;;;;;9.23;7.03;;;11.70;99.90;;;;;;5088806;28;20044;-84
2023/05/06 05:29:05;;;;;;;9.80;6.75;;;11.80;99.90;;;;;;5089860;28;20170;-83
2023/05/06 05:31:31;;;;;;;9.45;7.45;;;11.90;99.90;;;;;;5088996;28;20051;-84
2023/05/06 05:33:57;;;;;;;10.85;7.20;;;12.00;99.90;;;;;;5089109;28;20130;-83
2023/05/06 05:36:23;;;;;;;9.85;7.70;;;12.20;99.90;;;;;;5073137;28;20083;-83
2023/05/06 05:38:49;;;;;;;16.63;7.75;;;12.20;99.90;;;;;;5106354;28;20521;-82
2023/05/06 05:41:15;;;;;;;12.60;8.35;;;12.30;99.90;;;;;;5090225;28;20108;-84
2023/05/06 05:43:41;;;;;;;12.82;7.90;;;12.40;99.90;;;;;;5105209;28;20412;-83
2023/05/06 05:46:06;;;;;;;15.75;7.63;;;12.50;99.90;;;;;;5088934;28;20039;-84
2023/05/06 05:48:33;;;;;;;16.65;9.98;;;12.50;99.90;;;;;;5087605;28;20046;-86
2023/05/06 05:51:00;;;;;;;15.82;8.68;;;12.60;99.90;;;;;;5087207;28;20130;-84
2023/05/06 05:53:26;;;;;;;20.40;10.77;;;12.60;99.90;;;;;;5087489;28;20048;-84
2023/05/06 05:55:52;;;;;;;24.10;10.65;;;12.60;99.90;;;;;;5069681;28;20043;-84
2023/05/06 05:58:18;;;;;;;21.02;10.13;;;12.60;99.90;;;;;;5105100;28;20403;-85
2023/05/06 06:00:43;;;;;;;27.63;13.07;;;12.60;99.90;;;;;;5086647;28;20047;-85
2023/05/06 06:03:09;;;;;;;25.88;12.10;;;12.60;99.90;;;;;;5104796;28;20130;-87
2023/05/06 06:05:35;;;;;;;22.13;11.93;;;12.60;99.90;;;;;;5070389;28;20043;-85
2023/05/06 06:08:01;;;;;;;15.63;11.60;;;12.60;99.90;;;;;;5070649;28;20510;-85
2023/05/06 06:10:27;;;;;;;18.40;12.48;;;12.60;99.90;;;;;;5069954;28;20047;-86
2023/05/06 06:12:53;;;;;;;13.57;10.35;;;12.70;99.90;;;;;;5086694;28;20383;-85
2023/05/06 06:15:19;;;;;;;18.23;11.40;;;12.70;99.90;;;;;;5087772;28;20079;-86
2023/05/06 06:17:44;;;;;;;16.15;10.98;;;12.80;99.90;;;;;;5086621;28;20039;-86
2023/05/06 06:20:11;;;;;;;17.67;12.30;;;12.80;99.90;;;;;;5070510;28;20035;-86
2023/05/06 06:22:38;;;;;;;15.27;10.80;;;12.90;99.90;;;;;;5085767;28;20139;-85
2023/05/06 06:25:05;;;;;;;17.45;11.73;;;13.00;99.90;;;;;;5070739;28;20136;-87
2023/05/06 06:27:34;;;;;;;18.55;12.57;;;13.00;99.90;;;;;;5087017;28;20047;-89
2023/05/06 06:30:00;;;;;;;16.17;12.00;;;13.00;99.90;;;;;;5086360;28;20044;-85
2023/05/06 06:32:26;;;;;;;15.38;11.55;;;13.00;99.90;;;;;;5070444;28;20112;-85
2023/05/06 06:34:51;;;;;;;14.13;10.60;;;13.00;99.90;;;;;;5086439;28;20130;-85
2023/05/06 06:37:17;;;;;;;16.65;11.68;;;13.10;99.90;;;;;;5087194;28;20062;-85
2023/05/06 06:39:43;;;;;;;18.15;11.65;;;13.10;99.90;;;;;;5085636;28;20081;-84
2023/05/06 06:42:08;;;;;;;16.25;11.88;;;13.10;99.90;;;;;;5086513;28;20036;-84
2023/05/06 06:44:34;;;;;;;15.82;11.30;;;13.20;99.90;;;;;;5103491;28;20039;-89
2023/05/06 06:47:00;;;;;;;16.40;11.10;;;13.20;99.90;;;;;;5086272;28;20060;-86
2023/05/06 06:49:26;;;;;;;17.45;10.95;;;13.20;99.90;;;;;;5070165;28;20130;-86
2023/05/06 06:51:52;;;;;;;14.82;9.93;;;13.20;99.90;;;;;;5068541;28;20039;-84
2023/05/06 06:54:18;;;;;;;13.82;9.30;;;13.30;99.90;;;;;;5086737;28;20151;-85
2023/05/06 06:56:43;;;;;;;13.20;9.45;;;13.30;99.90;;;;;;5106397;28;20103;-85
2023/05/06 06:59:09;;;;;;;14.07;9.70;;;13.30;99.90;;;;;;5091207;28;20082;-85
2023/05/06 07:01:35;;;;;;;16.20;10.32;;;13.40;99.90;;;;;;5090179;28;20395;-86
2023/05/06 07:04:01;;;;;;;15.50;10.70;;;13.50;99.90;;;;;;5073164;28;20055;-86
2023/05/06 07:06:26;;;;;;;11.85;9.23;;;13.50;99.90;;;;;;5090349;28;20039;-87
2023/05/06 07:08:52;;;;;;;13.65;9.75;;;13.50;99.90;;;;;;5106281;28;20066;-87
2023/05/06 07:11:18;;;;;;;15.85;10.55;;;13.60;99.90;;;;;;5090899;28;20035;-87
2023/05/06 07:13:43;;;;;;;14.90;11.57;;;13.70;99.90;;;;;;5106372;28;20472;-87
2023/05/06 07:16:09;;;;;;;22.42;12.50;;;13.80;99.90;;;;;;5090763;28;20046;-86
2023/05/06 07:18:35;;;;;;;17.48;12.32;;;13.80;99.90;;;;;;5074614;28;20057;-88
2023/05/06 07:21:01;;;;;;;15.48;12.02;;;13.90;99.90;;;;;;5090500;28;20047;-82
2023/05/06 07:23:27;;;;;;;14.93;11.20;;;13.90;99.90;;;;;;5073101;28;20110;-83
2023/05/06 07:25:52;;;;;;;17.50;11.23;;;13.90;99.90;;;;;;5089318;28;20047;-83
2023/05/06 07:28:18;;;;;;;12.75;10.45;;;13.90;99.90;;;;;;5073255;28;20122;-82
2023/05/06 07:30:44;;;;;;;13.15;10.00;;;13.90;99.90;;;;;;5072335;28;20074;-82
2023/05/06 07:33:10;;;;;;;12.25;9.75;;;13.90;99.90;;;;;;5124655;27;20125;-83
2023/05/06 07:35:36;;;;;;;13.32;9.98;;;13.90;99.90;;;;;;5106838;28;20046;-81
2023/05/06 07:38:01;;;;;;;14.32;9.05;;;13.80;99.90;;;;;;5090154;28;20451;-84
2023/05/06 07:40:27;;;;;;;14.15;10.02;;;13.80;99.90;;;;;;5090069;28;20393;-82
2023/05/06 07:42:53;;;;;;;15.05;9.00;;;13.80;99.90;;;;;;5089225;28;20043;-82
2023/05/06 07:45:22;;;;;;;13.73;8.35;;;13.80;99.90;;;;;;5073028;28;20120;-82
2023/05/06 07:47:48;;;;;;;11.15;8.35;;;13.80;99.90;;;;;;5072525;28;20132;-82
2023/05/06 07:50:13;;;;;;;14.05;9.63;;;13.90;99.90;;;;;;5089834;28;20538;-82
2023/05/06 07:52:39;;;;;;;11.65;9.43;;;13.90;99.90;;;;;;5088976;28;20340;-81
2023/05/06 07:55:08;;;;;;;15.38;10.52;;;14.00;99.90;;;;;;5073002;28;20046;-82
2023/05/06 07:57:34;;;;;;;15.15;9.45;;;14.10;99.90;;;;;;5072799;28;20130;-82
2023/05/06 07:59:59;;;;;;;13.30;9.68;;;14.20;99.90;;;;;;5088801;28;20086;-82
2023/05/06 08:02:25;;;;;;;13.98;8.93;;;14.20;99.90;;;;;;5106651;28;20348;-82
2023/05/06 08:04:51;;;;;;;14.05;9.50;;;14.30;99.90;;;;;;5088015;28;20054;-81
2023/05/06 08:07:17;;;;;;;12.45;9.57;;;14.40;99.90;;;;;;5105233;28;20126;-82
2023/05/06 08:09:43;;;;;;;12.98;9.18;;;14.50;99.90;;;;;;5105998;28;20085;-81
2023/05/06 08:12:09;;;;;;;12.52;9.10;;;14.90;99.90;;;;;;5089224;28;20515;-81
2023/05/06 08:14:34;;;;;;;15.82;9.80;;;14.70;99.90;;;;;;5089068;28;20051;-80
2023/05/06 08:17:00;;;;;;;11.40;9.02;;;14.80;99.90;;;;;;5088587;28;20522;-80
2023/05/06 08:19:26;;;;;;;12.32;8.70;;;14.90;99.90;;;;;;5105988;28;20042;-80
2023/05/06 08:21:51;;;;;;;14.18;9.32;;;15.10;99.90;;;;;;5088071;28;20058;-79
2023/05/06 08:24:17;;;;;;;13.73;8.82;;;15.30;99.90;;;;;;5072391;28;20354;-80
2023/05/06 08:26:43;;;;;;;12.73;8.45;;;15.50;99.90;;;;;;5088381;28;20096;-80
2023/05/06 08:29:09;;;;;;;12.20;8.43;;;15.60;99.90;;;;;;5106221;28;20054;-80
2023/05/06 08:31:35;;;;;;;11.80;8.25;;;15.90;99.90;;;;;;5105494;28;20474;-81
2023/05/06 08:34:00;;;;;;;11.68;9.05;;;16.00;99.90;;;;;;5105156;28;20043;-81
2023/05/06 08:36:26;;;;;;;13.52;8.43;;;16.10;99.90;;;;;;5106245;28;20059;-81
2023/05/06 08:38:52;;;;;;;13.32;8.45;;;16.10;99.90;;;;;;5070812;28;20135;-81
2023/05/06 08:41:20;;;;;;;11.60;7.75;;;16.20;99.90;;;;;;5089339;28;20036;-80
2023/05/06 08:43:47;;;;;;;10.55;8.23;;;16.30;99.90;;;;;;5088172;28;20054;-81
2023/05/06 08:46:14;;;;;;;10.57;8.00;;;16.40;99.90;;;;;;5106046;28;20235;-80
2023/05/06 08:48:40;;;;;;;10.25;7.43;;;16.50;99.90;;;;;;5105832;28;20039;-81
2023/05/06 08:51:06;;;;;;;13.30;8.25;;;16.70;99.90;;;;;;5088392;28;20086;-81
2023/05/06 08:53:33;;;;;;;8.52;7.25;;;16.90;99.90;;;;;;5105485;28;20069;-81
2023/05/06 08:56:05;;;;;;;12.23;7.63;;;17.00;99.90;;;;;;5088001;28;20115;-81
2023/05/06 08:58:37;;;;;;;12.57;7.50;;;17.20;99.90;;;;;;5105975;28;20077;-81
2023/05/06 09:01:03;;;;;;;10.45;6.90;;;17.30;99.90;;;;;;5104730;28;20053;-81
2023/05/06 09:03:29;;;;;;;9.77;7.50;;;17.30;99.90;;;;;;5088518;28;20088;-81
2023/05/06 09:05:58;;;;;;;9.15;6.97;;;17.30;99.90;;;;;;5105356;28;20047;-81
2023/05/06 09:08:24;;;;;;;8.65;6.22;;;17.30;99.90;;;;;;5070707;28;20131;-81
2023/05/06 09:10:50;;;;;;;7.95;6.15;;;17.30;99.90;;;;;;5105229;28;20159;-80
2023/05/06 09:13:16;;;;;;;8.48;7.00;;;17.30;99.90;;;;;;5103950;28;20066;-84
2023/05/06 09:15:46;;;;;;;8.60;6.63;;;17.20;99.90;;;;;;5105482;28;20035;-84
2023/05/06 09:18:12;;;;;;;10.70;6.18;;;17.10;99.90;;;;;;5104961;28;20550;-82
2023/05/06 09:20:46;;;;;;;8.05;6.63;;;17.10;99.90;;;;;;5088118;28;20080;-83
2023/05/06 09:23:14;;;;;;;9.13;6.75;;;17.10;99.90;;;;;;5104634;28;20055;-83
2023/05/06 09:25:41;;;;;;;7.05;5.75;;;17.10;99.90;;;;;;5104310;28;20583;-82
2023/05/06 09:28:09;;;;;;;9.95;6.70;;;17.10;99.90;;;;;;5088593;28;20044;-82
2023/05/06 09:30:40;;;;;;;8.57;6.28;;;17.10;99.90;;;;;;5086798;28;20488;-82
2023/05/06 09:33:06;;;;;;;10.90;6.68;;;17.20;99.90;;;;;;5088559;28;20040;-83
2023/05/06 09:35:40;;;;;;;8.88;6.43;;;17.30;99.90;;;;;;5087910;28;20173;-84
2023/05/06 09:38:07;;;;;;;8.27;6.78;;;17.50;99.90;;;;;;5087624;28;20046;-82
2023/05/06 09:40:37;;;;;;;15.63;7.18;;;17.70;99.90;;;;;;5087963;28;20535;-83
2023/05/06 09:43:03;;;;;;;9.98;7.43;;;17.90;99.90;;;;;;5070180;28;20050;-83
2023/05/06 09:45:29;;;;;;;8.27;6.13;;;18.10;99.90;;;;;;5088458;28;20046;-84
2023/05/06 09:47:56;;;;;;;6.57;5.85;;;18.30;99.90;;;;;;5086910;28;20484;-84
2023/05/06 09:50:23;;;;;;;13.95;6.07;;;18.50;99.90;;;;;;5087756;28;20050;-84
2023/05/06 09:52:49;;;;;;;10.13;6.13;;;18.70;99.90;;;;;;5070551;28;20492;-87
2023/05/06 09:55:18;;;;;;;8.52;5.70;;;18.70;99.90;;;;;;5087638;28;20411;-85
2023/05/06 09:57:45;;;;;;;7.53;5.25;;;18.80;99.90;;;;;;5104916;28;20053;-85
2023/05/06 10:00:12;;;;;;;8.43;5.65;;;19.00;99.90;;;;;;5070972;28;20441;-86
2023/05/06 10:02:46;;;;;;;6.78;6.00;;;19.10;99.90;;;;;;5089529;28;20035;-86
2023/05/06 10:05:12;;;;;;;9.38;5.20;;;19.20;99.90;;;;;;5070803;28;20068;-84
2023/05/06 10:07:40;;;;;;;8.38;6.60;;;19.30;99.90;;;;;;5088006;28;20131;-85
2023/05/06 10:10:09;;;;;;;15.27;6.10;;;19.50;99.90;;;;;;5088203;28;20440;-84
2023/05/06 10:12:36;;;;;;;7.05;6.10;;;19.60;99.90;;;;;;5103775;28;20044;-86
2023/05/06 10:15:03;;;;;;;8.05;6.00;;;19.60;99.90;;;;;;5104832;28;20079;-83
2023/05/06 10:17:31;;;;;;;8.82;6.43;;;19.60;99.90;;;;;;5104070;28;20055;-81
2023/05/06 10:19:59;;;;;;;15.98;7.57;;;19.60;99.90;;;;;;5104889;28;20088;-87
2023/05/06 10:23:02;;;;;;;8.57;7.00;;;19.60;99.90;;;;;;5108552;28;20036;-94
2023/05/06 10:25:31;;;;;;;9.20;6.53;;;19.60;99.90;;;;;;5073170;28;20047;-86
2023/05/06 10:27:56;;;;;;;8.23;6.57;;;19.70;99.90;;;;;;5106135;28;20050;-87
2023/05/06 10:30:23;;;;;;;9.95;6.40;;;19.80;99.90;;;;;;5091516;28;20043;-88
2023/05/06 10:32:52;;;;;;;9.90;6.95;;;19.90;99.90;;;;;;5093189;28;20035;-86
2023/05/06 10:35:41;;;;;;;8.25;7.22;;;19.90;99.90;;;;;;5089777;28;20047;-91
2023/05/06 10:38:29;;;;;;;8.27;7.35;;;19.90;99.90;;;;;;5066173;28;20499;-87
2023/05/06 10:40:55;;;;;;;9.32;6.70;;;20.10;99.90;;;;;;5106301;28;20060;-85
2023/05/06 10:43:27;;;;;;;9.13;7.03;;;20.30;99.90;;;;;;5088542;28;20513;-83
2023/05/06 10:46:04;;;;;;;8.55;7.32;;;20.50;99.90;;;;;;5106746;28;20201;-83
2023/05/06 10:48:30;;;;;;;12.57;8.60;;;20.50;99.90;;;;;;5105928;28;20067;-83
2023/05/06 10:51:15;;;;;;;9.88;6.78;;;20.60;99.90;;;;;;5105403;28;20044;-85
2023/05/06 10:54:03;;;;;;;11.63;6.25;;;20.80;99.90;;;;;;5087717;28;20047;-81
2023/05/06 10:56:34;;;;;;;11.23;7.78;;;20.90;99.90;;;;;;5103064;28;20504;-82
2023/05/06 10:59:08;;;;;;;10.13;6.83;;;21.10;99.90;;;;;;5087397;28;20035;-82
2023/05/06 11:01:43;;;;;;;7.63;6.45;;;21.00;99.90;;;;;;5103918;28;20050;-82
2023/05/06 11:04:18;;;;;;;10.68;7.65;;;21.00;99.90;;;;;;5102821;28;20488;-83
2023/05/06 11:06:46;;;;;;;11.25;7.82;;;21.10;99.90;;;;;;5104799;28;20051;-81
2023/05/06 11:09:18;;;;;;;8.00;6.35;;;21.20;99.90;;;;;;5088101;28;20448;-82
2023/05/06 11:12:04;;;;;;;9.98;7.32;;;21.40;99.90;;;;;;5072528;28;20043;-80
2023/05/06 11:14:37;;;;;;;11.30;6.80;;;21.60;99.90;;;;;;5105089;28;20054;-80
2023/05/06 11:17:26;;;;;;;8.38;6.63;;;21.50;99.90;;;;;;5105327;28;20050;-79
2023/05/06 11:20:22;;;;;;;9.50;6.57;;;21.30;99.90;;;;;;5105217;28;20040;-80
2023/05/06 11:22:48;;;;;;;8.38;6.72;;;21.00;99.90;;;;;;5121356;28;20052;-81
2023/05/06 11:25:34;;;;;;;8.60;7.10;;;20.80;99.90;;;;;;5089588;28;20051;-79
2023/05/06 11:28:00;;;;;;;13.82;6.93;;;20.70;99.90;;;;;;5106645;28;20048;-81
2023/05/06 11:30:26;;;;;;;10.27;6.60;;;20.50;99.90;;;;;;5088087;28;20069;-79
2023/05/06 11:32:56;;;;;;;7.40;6.60;;;20.40;99.90;;;;;;5092642;28;20052;-81
2023/05/06 11:35:21;;;;;;;8.57;6.25;;;20.30;99.90;;;;;;5091526;28;20228;-83
2023/05/06 11:37:47;;;;;;;7.85;5.70;;;21.10;99.90;;;;;;5094924;28;20583;-85
2023/05/06 11:40:14;;;;;;;8.95;6.60;;;20.20;99.90;;;;;;5095823;28;20044;-83
2023/05/06 11:42:40;;;;;;;8.60;6.57;;;20.20;99.90;;;;;;5113111;28;20500;-85
2023/05/06 11:45:07;;;;;;;8.48;6.63;;;20.20;99.90;;;;;;5098575;28;20031;-84
2023/05/06 11:47:32;;;;;;;7.53;6.72;;;20.10;99.90;;;;;;5083173;28;20059;-87
2023/05/06 11:50:05;;;;;;;10.98;7.10;;;19.90;99.90;;;;;;5117959;28;20055;-84
2023/05/06 11:52:31;;;;;;;8.20;5.72;;;19.80;99.90;;;;;;5082014;28;20101;-83
2023/05/06 11:54:56;;;;;;;8.07;5.90;;;19.60;99.90;;;;;;5080567;28;20051;-86
2023/05/06 11:57:23;;;;;;;10.75;6.00;;;19.50;99.90;;;;;;5080331;28;20523;-83
2023/05/06 11:59:53;;;;;;;8.35;5.88;;;19.40;99.90;;;;;;5113555;28;20043;-81
2023/05/06 12:02:19;;;;;;;7.78;6.70;;;19.20;99.90;;;;;;5100647;28;20043;-90
2023/05/06 12:04:47;;;;;;;8.15;5.53;;;19.10;99.90;;;;;;5101414;28;20040;-87
2023/05/06 12:07:15;;;;;;;7.47;5.32;;;19.00;99.90;;;;;;5116818;28;20044;-84
2023/05/06 12:09:43;;;;;;;10.65;5.20;;;18.90;99.90;;;;;;5115464;28;20036;-84
2023/05/06 12:12:10;;;;;;;6.75;5.20;;;18.80;99.90;;;;;;5113772;28;20107;-83
2023/05/06 12:14:37;;;;;;;7.10;4.30;;;18.70;99.90;;;;;;5115300;28;20054;-85
2023/05/06 12:17:03;;;;;;;8.05;4.20;;;18.60;99.90;;;;;;5116695;27;20051;-86
2023/05/06 12:19:30;;;;;;;6.70;4.47;;;18.50;99.90;;;;;;5115084;28;20036;-88
2023/05/06 12:22:31;;;;;;;7.22;4.47;;;17.70;99.90;;;;;;5097808;28;20337;-86
2023/05/06 12:24:57;;;;;;;7.22;4.70;;;18.30;99.90;;;;;;5098527;28;20043;-84
2023/05/06 12:27:34;;;;;;;10.10;4.95;;;18.00;99.90;;;;;;5099791;28;20191;-82
2023/05/06 12:30:01;;;;;;;11.68;5.40;;;17.90;99.90;;;;;;5114437;28;20048;-87
2023/05/06 12:32:27;;;;;;;12.27;6.60;;;17.80;99.90;;;;;;5098420;28;20035;-91
2023/05/06 12:34:53;;;;;;;11.00;6.70;;;17.60;99.90;;;;;;5079663;28;20036;-89
2023/05/06 12:37:29;;;;;;;13.45;7.50;;;17.40;99.90;;;;;;5100462;28;20036;-89
2023/05/06 12:39:54;;;;;;;11.05;7.78;;;17.30;99.90;;;;;;5098401;28;20130;-87